sensor_id;sensor_type;location;lat;lon;timestamp;P1;durP1;ratioP1;P2;durP2;ratioP2
35298;SDS011;21415;48.054;16.646;2022-12-18T00:00:45;6.95;;;4.22;;
35298;SDS011;21415;48.054;16.646;2022-12-18T00:03:14;7.72;;;4.32;;
35298;SDS011;21415;48.054;16.646;2022-12-18T00:05:47;7.68;;;3.75;;
35298;SDS011;21415;48.054;16.646;2022-12-18T00:08:13;8.40;;;4.25;;
35298;SDS011;21415;48.054;16.646;2022-12-18T00:10:39;6.75;;;4.78;;
35298;SDS011;21415;48.054;16.646;2022-12-18T00:13:05;6.85;;;4.95;;
35298;SDS011;21415;48.054;16.646;2022-12-18T00:15:33;7.47;;;4.67;;
35298;SDS011;21415;48.054;16.646;2022-12-18T00:18:03;7.47;;;4.28;;
35298;SDS011;21415;48.054;16.646;2022-12-18T00:20:29;7.25;;;4.55;;
35298;SDS011;21415;48.054;16.646;2022-12-18T00:22:55;8.15;;;4.07;;
35298;SDS011;21415;48.054;16.646;2022-12-18T00:27:47;6.65;;;4.28;;
35298;SDS011;21415;48.054;16.646;2022-12-18T00:30:13;4.95;;;3.60;;
35298;SDS011;21415;48.054;16.646;2022-12-18T00:32:39;6.03;;;3.72;;
35298;SDS011;21415;48.054;16.646;2022-12-18T00:35:05;7.63;;;4.60;;
35298;SDS011;21415;48.054;16.646;2022-12-18T00:37:33;9.98;;;4.53;;
35298;SDS011;21415;48.054;16.646;2022-12-18T00:39:59;8.15;;;4.65;;
35298;SDS011;21415;48.054;16.646;2022-12-18T00:42:25;9.35;;;4.88;;
35298;SDS011;21415;48.054;16.646;2022-12-18T00:45:09;7.28;;;4.43;;
35298;SDS011;21415;48.054;16.646;2022-12-18T00:47:35;6.50;;;4.30;;
35298;SDS011;21415;48.054;16.646;2022-12-18T00:50:00;6.57;;;4.60;;
35298;SDS011;21415;48.054;16.646;2022-12-18T00:52:27;9.43;;;4.65;;
35298;SDS011;21415;48.054;16.646;2022-12-18T00:54:52;7.05;;;4.47;;
35298;SDS011;21415;48.054;16.646;2022-12-18T00:57:18;7.45;;;4.53;;
35298;SDS011;21415;48.054;16.646;2022-12-18T00:59:44;6.28;;;4.18;;
35298;SDS011;21415;48.054;16.646;2022-12-18T01:02:10;6.37;;;4.03;;
35298;SDS011;21415;48.054;16.646;2022-12-18T01:04:38;6.20;;;4.22;;
35298;SDS011;21415;48.054;16.646;2022-12-18T01:07:04;8.15;;;4.47;;
35298;SDS011;21415;48.054;16.646;2022-12-18T01:09:30;7.35;;;4.97;;
35298;SDS011;21415;48.054;16.646;2022-12-18T01:11:56;6.95;;;4.25;;
35298;SDS011;21415;48.054;16.646;2022-12-18T01:14:21;10.07;;;5.13;;
35298;SDS011;21415;48.054;16.646;2022-12-18T01:16:47;7.30;;;4.60;;
35298;SDS011;21415;48.054;16.646;2022-12-18T01:19:13;11.27;;;6.18;;
35298;SDS011;21415;48.054;16.646;2022-12-18T01:21:38;9.18;;;5.25;;
35298;SDS011;21415;48.054;16.646;2022-12-18T01:24:04;9.30;;;5.97;;
35298;SDS011;21415;48.054;16.646;2022-12-18T01:26:30;8.63;;;5.70;;
35298;SDS011;21415;48.054;16.646;2022-12-18T01:28:56;11.20;;;6.03;;
35298;SDS011;21415;48.054;16.646;2022-12-18T01:31:24;9.65;;;6.10;;
35298;SDS011;21415;48.054;16.646;2022-12-18T01:33:53;10.10;;;6.20;;
35298;SDS011;21415;48.054;16.646;2022-12-18T01:36:30;9.63;;;5.78;;
35298;SDS011;21415;48.054;16.646;2022-12-18T01:39:03;10.48;;;5.53;;
35298;SDS011;21415;48.054;16.646;2022-12-18T01:41:31;11.02;;;6.60;;
35298;SDS011;21415;48.054;16.646;2022-12-18T01:47:12;10.13;;;5.78;;
35298;SDS011;21415;48.054;16.646;2022-12-18T01:49:48;10.32;;;6.13;;
35298;SDS011;21415;48.054;16.646;2022-12-18T01:52:13;9.40;;;6.53;;
35298;SDS011;21415;48.054;16.646;2022-12-18T01:54:40;11.13;;;6.90;;
35298;SDS011;21415;48.054;16.646;2022-12-18T01:57:06;10.50;;;6.55;;
35298;SDS011;21415;48.054;16.646;2022-12-18T01:59:32;11.65;;;6.82;;
35298;SDS011;21415;48.054;16.646;2022-12-18T02:02:00;9.63;;;6.15;;
35298;SDS011;21415;48.054;16.646;2022-12-18T02:04:28;13.43;;;6.57;;
35298;SDS011;21415;48.054;16.646;2022-12-18T02:07:05;11.57;;;6.55;;
35298;SDS011;21415;48.054;16.646;2022-12-18T02:09:55;10.80;;;6.65;;
35298;SDS011;21415;48.054;16.646;2022-12-18T02:12:28;10.55;;;6.50;;
35298;SDS011;21415;48.054;16.646;2022-12-18T02:15:08;12.77;;;7.07;;
35298;SDS011;21415;48.054;16.646;2022-12-18T02:17:54;11.32;;;6.13;;
35298;SDS011;21415;48.054;16.646;2022-12-18T02:20:31;11.85;;;7.97;;
35298;SDS011;21415;48.054;16.646;2022-12-18T02:23:16;12.02;;;6.78;;
35298;SDS011;21415;48.054;16.646;2022-12-18T02:31:32;10.63;;;7.30;;
35298;SDS011;21415;48.054;16.646;2022-12-18T02:34:05;10.55;;;6.50;;
35298;SDS011;21415;48.054;16.646;2022-12-18T02:36:37;10.98;;;6.78;;
35298;SDS011;21415;48.054;16.646;2022-12-18T02:39:06;11.65;;;7.10;;
35298;SDS011;21415;48.054;16.646;2022-12-18T02:41:35;12.73;;;7.40;;
35298;SDS011;21415;48.054;16.646;2022-12-18T02:44:06;12.18;;;6.75;;
35298;SDS011;21415;48.054;16.646;2022-12-18T02:46:35;12.60;;;7.05;;
35298;SDS011;21415;48.054;16.646;2022-12-18T02:51:55;12.15;;;7.38;;
35298;SDS011;21415;48.054;16.646;2022-12-18T02:54:55;12.93;;;7.70;;
35298;SDS011;21415;48.054;16.646;2022-12-18T02:57:33;10.85;;;6.53;;
35298;SDS011;21415;48.054;16.646;2022-12-18T03:02:41;12.60;;;8.05;;
35298;SDS011;21415;48.054;16.646;2022-12-18T03:05:17;9.32;;;6.45;;
35298;SDS011;21415;48.054;16.646;2022-12-18T03:10:37;9.80;;;6.70;;
35298;SDS011;21415;48.054;16.646;2022-12-18T03:13:09;11.98;;;6.75;;
35298;SDS011;21415;48.054;16.646;2022-12-18T03:15:44;10.60;;;6.72;;
35298;SDS011;21415;48.054;16.646;2022-12-18T03:18:16;12.73;;;7.35;;
35298;SDS011;21415;48.054;16.646;2022-12-18T03:21:04;11.80;;;6.78;;
35298;SDS011;21415;48.054;16.646;2022-12-18T03:23:39;11.07;;;7.07;;
35298;SDS011;21415;48.054;16.646;2022-12-18T03:26:10;11.13;;;7.40;;
35298;SDS011;21415;48.054;16.646;2022-12-18T03:28:42;10.77;;;6.57;;
35298;SDS011;21415;48.054;16.646;2022-12-18T03:31:17;10.98;;;7.45;;
35298;SDS011;21415;48.054;16.646;2022-12-18T03:36:24;10.82;;;6.63;;
35298;SDS011;21415;48.054;16.646;2022-12-18T03:38:50;11.15;;;7.28;;
35298;SDS011;21415;48.054;16.646;2022-12-18T03:46:33;9.98;;;6.55;;
35298;SDS011;21415;48.054;16.646;2022-12-18T03:49:10;12.75;;;7.28;;
35298;SDS011;21415;48.054;16.646;2022-12-18T03:51:42;11.23;;;7.22;;
35298;SDS011;21415;48.054;16.646;2022-12-18T03:54:11;10.50;;;6.68;;
35298;SDS011;21415;48.054;16.646;2022-12-18T03:56:45;11.48;;;6.68;;
35298;SDS011;21415;48.054;16.646;2022-12-18T03:59:15;13.13;;;7.50;;
35298;SDS011;21415;48.054;16.646;2022-12-18T04:01:46;11.88;;;7.50;;
35298;SDS011;21415;48.054;16.646;2022-12-18T04:04:15;13.95;;;7.95;;
35298;SDS011;21415;48.054;16.646;2022-12-18T04:06:43;14.65;;;7.93;;
35298;SDS011;21415;48.054;16.646;2022-12-18T04:09:12;14.63;;;8.50;;
35298;SDS011;21415;48.054;16.646;2022-12-18T04:11:43;19.33;;;11.13;;
35298;SDS011;21415;48.054;16.646;2022-12-18T04:14:13;30.27;;;16.10;;
35298;SDS011;21415;48.054;16.646;2022-12-18T04:16:39;26.83;;;15.95;;
35298;SDS011;21415;48.054;16.646;2022-12-18T04:19:08;24.45;;;13.93;;
35298;SDS011;21415;48.054;16.646;2022-12-18T04:21:38;23.20;;;13.48;;
35298;SDS011;21415;48.054;16.646;2022-12-18T04:24:04;21.35;;;12.30;;
35298;SDS011;21415;48.054;16.646;2022-12-18T04:26:32;19.90;;;11.18;;
35298;SDS011;21415;48.054;16.646;2022-12-18T04:29:11;15.63;;;8.95;;
35298;SDS011;21415;48.054;16.646;2022-12-18T04:31:37;13.13;;;8.25;;
35298;SDS011;21415;48.054;16.646;2022-12-18T04:34:04;14.55;;;7.38;;
35298;SDS011;21415;48.054;16.646;2022-12-18T04:36:36;10.93;;;7.07;;
35298;SDS011;21415;48.054;16.646;2022-12-18T04:39:02;11.27;;;7.43;;
35298;SDS011;21415;48.054;16.646;2022-12-18T04:41:29;14.20;;;7.95;;
35298;SDS011;21415;48.054;16.646;2022-12-18T04:43:55;17.60;;;8.75;;
35298;SDS011;21415;48.054;16.646;2022-12-18T04:46:21;13.98;;;8.10;;
35298;SDS011;21415;48.054;16.646;2022-12-18T04:48:46;15.82;;;8.40;;
35298;SDS011;21415;48.054;16.646;2022-12-18T04:51:12;12.43;;;7.85;;
35298;SDS011;21415;48.054;16.646;2022-12-18T04:53:38;12.82;;;8.30;;
35298;SDS011;21415;48.054;16.646;2022-12-18T04:56:05;15.13;;;8.53;;
35298;SDS011;21415;48.054;16.646;2022-12-18T04:58:33;13.80;;;8.73;;
35298;SDS011;21415;48.054;16.646;2022-12-18T05:00:58;13.98;;;8.38;;
35298;SDS011;21415;48.054;16.646;2022-12-18T05:03:24;13.70;;;7.82;;
35298;SDS011;21415;48.054;16.646;2022-12-18T05:05:50;12.05;;;8.18;;
35298;SDS011;21415;48.054;16.646;2022-12-18T05:08:16;14.35;;;9.25;;
35298;SDS011;21415;48.054;16.646;2022-12-18T05:10:42;14.63;;;7.95;;
35298;SDS011;21415;48.054;16.646;2022-12-18T05:13:08;13.63;;;8.38;;
35298;SDS011;21415;48.054;16.646;2022-12-18T05:15:34;16.00;;;8.63;;
35298;SDS011;21415;48.054;16.646;2022-12-18T05:18:00;12.65;;;8.35;;
35298;SDS011;21415;48.054;16.646;2022-12-18T05:20:28;15.27;;;8.65;;
35298;SDS011;21415;48.054;16.646;2022-12-18T05:22:54;12.82;;;7.70;;
35298;SDS011;21415;48.054;16.646;2022-12-18T05:25:21;13.48;;;8.07;;
35298;SDS011;21415;48.054;16.646;2022-12-18T05:30:13;11.13;;;7.65;;
35298;SDS011;21415;48.054;16.646;2022-12-18T05:32:40;13.57;;;8.05;;
35298;SDS011;21415;48.054;16.646;2022-12-18T05:35:07;13.07;;;7.22;;
35298;SDS011;21415;48.054;16.646;2022-12-18T05:37:34;14.77;;;8.57;;
35298;SDS011;21415;48.054;16.646;2022-12-18T05:40:00;16.35;;;9.40;;
35298;SDS011;21415;48.054;16.646;2022-12-18T05:47:17;12.95;;;7.70;;
35298;SDS011;21415;48.054;16.646;2022-12-18T05:49:43;14.60;;;7.63;;
35298;SDS011;21415;48.054;16.646;2022-12-18T05:52:09;12.60;;;8.35;;
35298;SDS011;21415;48.054;16.646;2022-12-18T05:54:35;12.65;;;7.75;;
35298;SDS011;21415;48.054;16.646;2022-12-18T05:57:00;11.93;;;7.32;;
35298;SDS011;21415;48.054;16.646;2022-12-18T05:59:26;12.77;;;7.88;;
35298;SDS011;21415;48.054;16.646;2022-12-18T06:01:52;12.77;;;7.93;;
35298;SDS011;21415;48.054;16.646;2022-12-18T06:04:17;12.93;;;7.65;;
35298;SDS011;21415;48.054;16.646;2022-12-18T06:06:43;11.90;;;7.68;;
35298;SDS011;21415;48.054;16.646;2022-12-18T06:09:09;14.43;;;8.18;;
35298;SDS011;21415;48.054;16.646;2022-12-18T06:11:35;12.05;;;7.60;;
35298;SDS011;21415;48.054;16.646;2022-12-18T06:14:03;13.65;;;8.15;;
35298;SDS011;21415;48.054;16.646;2022-12-18T06:16:29;13.48;;;8.55;;
35298;SDS011;21415;48.054;16.646;2022-12-18T06:18:56;13.80;;;8.07;;
35298;SDS011;21415;48.054;16.646;2022-12-18T06:21:22;15.77;;;8.95;;
35298;SDS011;21415;48.054;16.646;2022-12-18T06:23:48;17.40;;;9.15;;
35298;SDS011;21415;48.054;16.646;2022-12-18T06:26:14;12.15;;;8.05;;
35298;SDS011;21415;48.054;16.646;2022-12-18T06:28:40;13.40;;;7.32;;
35298;SDS011;21415;48.054;16.646;2022-12-18T06:31:06;13.30;;;8.20;;
35298;SDS011;21415;48.054;16.646;2022-12-18T06:38:25;12.43;;;7.55;;
35298;SDS011;21415;48.054;16.646;2022-12-18T06:40:51;12.27;;;7.25;;
35298;SDS011;21415;48.054;16.646;2022-12-18T06:43:17;13.45;;;8.18;;
35298;SDS011;21415;48.054;16.646;2022-12-18T06:45:43;14.23;;;8.70;;
35298;SDS011;21415;48.054;16.646;2022-12-18T06:48:08;12.98;;;8.85;;
35298;SDS011;21415;48.054;16.646;2022-12-18T06:50:34;12.70;;;8.15;;
35298;SDS011;21415;48.054;16.646;2022-12-18T06:53:00;15.40;;;8.10;;
35298;SDS011;21415;48.054;16.646;2022-12-18T06:55:26;13.73;;;8.85;;
35298;SDS011;21415;48.054;16.646;2022-12-18T06:57:51;17.23;;;9.05;;
35298;SDS011;21415;48.054;16.646;2022-12-18T07:00:17;15.90;;;9.40;;
35298;SDS011;21415;48.054;16.646;2022-12-18T07:02:43;12.35;;;8.30;;
35298;SDS011;21415;48.054;16.646;2022-12-18T07:05:09;15.98;;;9.07;;
35298;SDS011;21415;48.054;16.646;2022-12-18T07:07:34;11.35;;;8.10;;
35298;SDS011;21415;48.054;16.646;2022-12-18T07:10:00;13.77;;;8.43;;
35298;SDS011;21415;48.054;16.646;2022-12-18T07:12:26;12.05;;;8.10;;
35298;SDS011;21415;48.054;16.646;2022-12-18T07:14:52;13.52;;;8.50;;
35298;SDS011;21415;48.054;16.646;2022-12-18T07:17:18;15.18;;;8.90;;
35298;SDS011;21415;48.054;16.646;2022-12-18T07:19:44;15.10;;;8.88;;
35298;SDS011;21415;48.054;16.646;2022-12-18T07:22:10;15.65;;;9.23;;
35298;SDS011;21415;48.054;16.646;2022-12-18T07:24:35;19.75;;;11.95;;
35298;SDS011;21415;48.054;16.646;2022-12-18T07:27:01;21.52;;;13.93;;
35298;SDS011;21415;48.054;16.646;2022-12-18T07:29:27;21.15;;;13.75;;
35298;SDS011;21415;48.054;16.646;2022-12-18T07:31:53;25.90;;;13.55;;
35298;SDS011;21415;48.054;16.646;2022-12-18T07:34:19;15.77;;;9.38;;
35298;SDS011;21415;48.054;16.646;2022-12-18T07:36:44;17.88;;;12.70;;
35298;SDS011;21415;48.054;16.646;2022-12-18T07:39:10;24.50;;;11.98;;
35298;SDS011;21415;48.054;16.646;2022-12-18T07:41:36;30.95;;;17.38;;
35298;SDS011;21415;48.054;16.646;2022-12-18T07:44:11;36.72;;;23.17;;
35298;SDS011;21415;48.054;16.646;2022-12-18T07:46:37;31.85;;;19.50;;
35298;SDS011;21415;48.054;16.646;2022-12-18T07:49:03;25.92;;;15.63;;
35298;SDS011;21415;48.054;16.646;2022-12-18T07:51:29;20.58;;;13.05;;
35298;SDS011;21415;48.054;16.646;2022-12-18T07:53:55;17.35;;;11.32;;
35298;SDS011;21415;48.054;16.646;2022-12-18T07:56:22;16.92;;;9.40;;
35298;SDS011;21415;48.054;16.646;2022-12-18T07:58:47;16.67;;;10.88;;
35298;SDS011;21415;48.054;16.646;2022-12-18T08:01:13;17.48;;;11.73;;
35298;SDS011;21415;48.054;16.646;2022-12-18T08:03:39;18.08;;;12.68;;
35298;SDS011;21415;48.054;16.646;2022-12-18T08:06:06;18.02;;;11.00;;
35298;SDS011;21415;48.054;16.646;2022-12-18T08:08:34;16.67;;;10.52;;
35298;SDS011;21415;48.054;16.646;2022-12-18T08:11:01;19.05;;;11.35;;
35298;SDS011;21415;48.054;16.646;2022-12-18T08:13:27;22.42;;;11.18;;
35298;SDS011;21415;48.054;16.646;2022-12-18T08:18:27;16.52;;;10.20;;
35298;SDS011;21415;48.054;16.646;2022-12-18T08:20:52;18.98;;;11.68;;
35298;SDS011;21415;48.054;16.646;2022-12-18T08:23:19;20.00;;;11.63;;
35298;SDS011;21415;48.054;16.646;2022-12-18T08:25:44;20.98;;;11.95;;
35298;SDS011;21415;48.054;16.646;2022-12-18T08:28:10;14.52;;;9.88;;
35298;SDS011;21415;48.054;16.646;2022-12-18T08:30:36;20.58;;;10.70;;
35298;SDS011;21415;48.054;16.646;2022-12-18T08:33:02;16.70;;;9.45;;
35298;SDS011;21415;48.054;16.646;2022-12-18T08:35:28;14.65;;;9.40;;
35298;SDS011;21415;48.054;16.646;2022-12-18T08:37:54;16.45;;;10.20;;
35298;SDS011;21415;48.054;16.646;2022-12-18T08:40:19;17.40;;;10.02;;
35298;SDS011;21415;48.054;16.646;2022-12-18T08:42:45;17.52;;;9.90;;
35298;SDS011;21415;48.054;16.646;2022-12-18T08:45:29;18.75;;;10.50;;
35298;SDS011;21415;48.054;16.646;2022-12-18T08:47:55;16.73;;;10.88;;
35298;SDS011;21415;48.054;16.646;2022-12-18T08:50:21;19.60;;;10.52;;
35298;SDS011;21415;48.054;16.646;2022-12-18T08:52:46;15.75;;;9.93;;
35298;SDS011;21415;48.054;16.646;2022-12-18T08:55:12;16.48;;;10.02;;
35298;SDS011;21415;48.054;16.646;2022-12-18T08:57:38;20.60;;;12.13;;
35298;SDS011;21415;48.054;16.646;2022-12-18T09:00:04;24.90;;;14.45;;
35298;SDS011;21415;48.054;16.646;2022-12-18T09:07:21;21.33;;;12.40;;
35298;SDS011;21415;48.054;16.646;2022-12-18T09:09:47;19.98;;;11.35;;
35298;SDS011;21415;48.054;16.646;2022-12-18T09:12:13;20.73;;;12.33;;
35298;SDS011;21415;48.054;16.646;2022-12-18T09:14:38;21.48;;;12.70;;
35298;SDS011;21415;48.054;16.646;2022-12-18T09:17:04;24.15;;;13.55;;
35298;SDS011;21415;48.054;16.646;2022-12-18T09:19:30;21.55;;;12.93;;
35298;SDS011;21415;48.054;16.646;2022-12-18T09:21:56;18.50;;;10.02;;
35298;SDS011;21415;48.054;16.646;2022-12-18T09:24:21;22.38;;;12.57;;
35298;SDS011;21415;48.054;16.646;2022-12-18T09:26:47;19.52;;;11.88;;
35298;SDS011;21415;48.054;16.646;2022-12-18T09:29:14;25.63;;;13.25;;
35298;SDS011;21415;48.054;16.646;2022-12-18T09:31:40;20.88;;;12.02;;
35298;SDS011;21415;48.054;16.646;2022-12-18T09:34:06;20.85;;;11.55;;
35298;SDS011;21415;48.054;16.646;2022-12-18T09:36:32;19.02;;;11.38;;
35298;SDS011;21415;48.054;16.646;2022-12-18T09:38:58;19.98;;;11.57;;
35298;SDS011;21415;48.054;16.646;2022-12-18T09:44:03;22.08;;;11.18;;
35298;SDS011;21415;48.054;16.646;2022-12-18T09:47:08;20.08;;;10.95;;
35298;SDS011;21415;48.054;16.646;2022-12-18T09:49:38;18.73;;;10.63;;
35298;SDS011;21415;48.054;16.646;2022-12-18T09:52:53;20.38;;;10.88;;
35298;SDS011;21415;48.054;16.646;2022-12-18T09:55:03;21.67;;;11.65;;
35298;SDS011;21415;48.054;16.646;2022-12-18T09:57:36;20.65;;;11.50;;
35298;SDS011;21415;48.054;16.646;2022-12-18T10:00:18;21.67;;;10.98;;
35298;SDS011;21415;48.054;16.646;2022-12-18T10:02:48;19.73;;;11.15;;
35298;SDS011;21415;48.054;16.646;2022-12-18T10:05:17;20.75;;;10.40;;
35298;SDS011;21415;48.054;16.646;2022-12-18T10:13:02;19.17;;;10.80;;
35298;SDS011;21415;48.054;16.646;2022-12-18T10:18:36;22.58;;;10.90;;
35298;SDS011;21415;48.054;16.646;2022-12-18T10:21:13;21.42;;;11.85;;
35298;SDS011;21415;48.054;16.646;2022-12-18T10:26:40;20.17;;;11.90;;
35298;SDS011;21415;48.054;16.646;2022-12-18T10:29:16;21.00;;;11.52;;
35298;SDS011;21415;48.054;16.646;2022-12-18T10:31:42;18.58;;;10.75;;
35298;SDS011;21415;48.054;16.646;2022-12-18T10:34:11;21.98;;;12.05;;
35298;SDS011;21415;48.054;16.646;2022-12-18T10:36:37;23.38;;;12.52;;
35298;SDS011;21415;48.054;16.646;2022-12-18T10:39:19;22.23;;;12.32;;
35298;SDS011;21415;48.054;16.646;2022-12-18T10:41:51;20.80;;;11.43;;
35298;SDS011;21415;48.054;16.646;2022-12-18T10:44:29;19.85;;;12.00;;
35298;SDS011;21415;48.054;16.646;2022-12-18T10:47:03;22.90;;;12.25;;
35298;SDS011;21415;48.054;16.646;2022-12-18T10:49:32;23.42;;;12.80;;
35298;SDS011;21415;48.054;16.646;2022-12-18T10:52:16;25.88;;;13.55;;
35298;SDS011;21415;48.054;16.646;2022-12-18T10:54:48;21.70;;;12.30;;
35298;SDS011;21415;48.054;16.646;2022-12-18T10:59:58;21.77;;;12.68;;
35298;SDS011;21415;48.054;16.646;2022-12-18T11:02:43;24.63;;;12.85;;
35298;SDS011;21415;48.054;16.646;2022-12-18T11:05:23;27.58;;;13.98;;
35298;SDS011;21415;48.054;16.646;2022-12-18T11:07:56;23.88;;;14.30;;
35298;SDS011;21415;48.054;16.646;2022-12-18T11:10:33;24.45;;;13.50;;
35298;SDS011;21415;48.054;16.646;2022-12-18T11:13:17;24.15;;;13.68;;
35298;SDS011;21415;48.054;16.646;2022-12-18T11:15:46;26.65;;;15.32;;
35298;SDS011;21415;48.054;16.646;2022-12-18T11:18:25;27.70;;;14.50;;
35298;SDS011;21415;48.054;16.646;2022-12-18T11:23:34;22.67;;;11.75;;
35298;SDS011;21415;48.054;16.646;2022-12-18T11:26:02;25.75;;;13.38;;
35298;SDS011;21415;48.054;16.646;2022-12-18T11:28:34;21.27;;;12.15;;
35298;SDS011;21415;48.054;16.646;2022-12-18T11:31:32;20.65;;;11.95;;
35298;SDS011;21415;48.054;16.646;2022-12-18T11:33:59;19.42;;;11.57;;
35298;SDS011;21415;48.054;16.646;2022-12-18T11:36:45;19.42;;;10.95;;
35298;SDS011;21415;48.054;16.646;2022-12-18T11:39:24;19.48;;;10.15;;
35298;SDS011;21415;48.054;16.646;2022-12-18T11:42:00;19.58;;;11.05;;
35298;SDS011;21415;48.054;16.646;2022-12-18T11:49:50;22.25;;;11.95;;
35298;SDS011;21415;48.054;16.646;2022-12-18T11:54:52;19.40;;;11.45;;
35298;SDS011;21415;48.054;16.646;2022-12-18T11:59:57;22.98;;;12.18;;
35298;SDS011;21415;48.054;16.646;2022-12-18T12:13:44;19.80;;;11.40;;
35298;SDS011;21415;48.054;16.646;2022-12-18T12:28:33;20.67;;;11.00;;
35298;SDS011;21415;48.054;16.646;2022-12-18T12:33:57;23.60;;;12.30;;
35298;SDS011;21415;48.054;16.646;2022-12-18T12:36:42;21.55;;;11.70;;
35298;SDS011;21415;48.054;16.646;2022-12-18T12:39:35;20.30;;;11.75;;
35298;SDS011;21415;48.054;16.646;2022-12-18T12:42:04;20.10;;;11.05;;
35298;SDS011;21415;48.054;16.646;2022-12-18T12:44:55;23.13;;;11.18;;
35298;SDS011;21415;48.054;16.646;2022-12-18T12:47:27;18.48;;;10.60;;
35298;SDS011;21415;48.054;16.646;2022-12-18T12:49:58;21.30;;;11.35;;
35298;SDS011;21415;48.054;16.646;2022-12-18T12:52:32;19.75;;;11.15;;
35298;SDS011;21415;48.054;16.646;2022-12-18T12:55:03;21.55;;;11.27;;
35298;SDS011;21415;48.054;16.646;2022-12-18T12:57:34;21.95;;;11.57;;
35298;SDS011;21415;48.054;16.646;2022-12-18T13:08:22;20.00;;;11.38;;
35298;SDS011;21415;48.054;16.646;2022-12-18T13:10:48;22.80;;;11.30;;
35298;SDS011;21415;48.054;16.646;2022-12-18T13:16:13;18.02;;;9.95;;
35298;SDS011;21415;48.054;16.646;2022-12-18T13:18:48;25.58;;;11.75;;
35298;SDS011;21415;48.054;16.646;2022-12-18T13:21:27;22.15;;;11.20;;
35298;SDS011;21415;48.054;16.646;2022-12-18T13:23:55;20.58;;;11.65;;
35298;SDS011;21415;48.054;16.646;2022-12-18T13:26:33;20.65;;;12.00;;
35298;SDS011;21415;48.054;16.646;2022-12-18T13:28:59;22.80;;;12.23;;
35298;SDS011;21415;48.054;16.646;2022-12-18T13:34:23;23.85;;;12.60;;
35298;SDS011;21415;48.054;16.646;2022-12-18T13:36:55;24.20;;;11.75;;
35298;SDS011;21415;48.054;16.646;2022-12-18T13:39:39;19.52;;;10.27;;
35298;SDS011;21415;48.054;16.646;2022-12-18T13:44:34;22.33;;;11.80;;
35298;SDS011;21415;48.054;16.646;2022-12-18T13:47:05;23.55;;;12.32;;
35298;SDS011;21415;48.054;16.646;2022-12-18T13:49:49;22.60;;;13.02;;
35298;SDS011;21415;48.054;16.646;2022-12-18T13:52:20;21.60;;;12.25;;
35298;SDS011;21415;48.054;16.646;2022-12-18T13:54:51;23.38;;;12.50;;
35298;SDS011;21415;48.054;16.646;2022-12-18T13:57:31;20.38;;;11.50;;
35298;SDS011;21415;48.054;16.646;2022-12-18T13:59:59;20.02;;;11.10;;
35298;SDS011;21415;48.054;16.646;2022-12-18T14:02:44;20.45;;;11.30;;
35298;SDS011;21415;48.054;16.646;2022-12-18T14:05:33;19.00;;;11.68;;
35298;SDS011;21415;48.054;16.646;2022-12-18T14:08:02;20.20;;;11.40;;
35298;SDS011;21415;48.054;16.646;2022-12-18T14:10:30;20.35;;;10.88;;
35298;SDS011;21415;48.054;16.646;2022-12-18T14:12:56;21.48;;;10.95;;
35298;SDS011;21415;48.054;16.646;2022-12-18T14:16:03;25.58;;;12.82;;
35298;SDS011;21415;48.054;16.646;2022-12-18T14:18:22;24.17;;;13.00;;
35298;SDS011;21415;48.054;16.646;2022-12-18T14:20:55;24.90;;;13.48;;
35298;SDS011;21415;48.054;16.646;2022-12-18T14:26:00;19.42;;;11.95;;
35298;SDS011;21415;48.054;16.646;2022-12-18T14:31:25;18.95;;;10.43;;
35298;SDS011;21415;48.054;16.646;2022-12-18T14:33:52;18.23;;;10.30;;
35298;SDS011;21415;48.054;16.646;2022-12-18T14:36:22;18.23;;;10.43;;
35298;SDS011;21415;48.054;16.646;2022-12-18T14:38:51;18.05;;;10.27;;
35298;SDS011;21415;48.054;16.646;2022-12-18T14:41:20;21.88;;;11.55;;
35298;SDS011;21415;48.054;16.646;2022-12-18T14:43:48;20.42;;;11.25;;
35298;SDS011;21415;48.054;16.646;2022-12-18T14:46:34;22.15;;;11.05;;
35298;SDS011;21415;48.054;16.646;2022-12-18T14:49:14;22.00;;;12.23;;
35298;SDS011;21415;48.054;16.646;2022-12-18T14:51:52;20.30;;;11.32;;
35298;SDS011;21415;48.054;16.646;2022-12-18T14:54:20;22.98;;;12.07;;
35298;SDS011;21415;48.054;16.646;2022-12-18T14:56:48;21.23;;;11.90;;
35298;SDS011;21415;48.054;16.646;2022-12-18T14:59:20;19.63;;;10.55;;
35298;SDS011;21415;48.054;16.646;2022-12-18T15:01:56;19.27;;;11.48;;
35298;SDS011;21415;48.054;16.646;2022-12-18T15:04:31;19.35;;;11.02;;
35298;SDS011;21415;48.054;16.646;2022-12-18T15:07:03;21.95;;;11.18;;
35298;SDS011;21415;48.054;16.646;2022-12-18T15:09:33;19.67;;;10.80;;
35298;SDS011;21415;48.054;16.646;2022-12-18T15:12:00;20.70;;;11.35;;
35298;SDS011;21415;48.054;16.646;2022-12-18T15:16:55;18.42;;;10.98;;
35298;SDS011;21415;48.054;16.646;2022-12-18T15:19:22;21.77;;;10.98;;
35298;SDS011;21415;48.054;16.646;2022-12-18T15:22:01;22.17;;;12.13;;
35298;SDS011;21415;48.054;16.646;2022-12-18T15:24:29;20.63;;;12.38;;
35298;SDS011;21415;48.054;16.646;2022-12-18T15:26:57;21.30;;;11.73;;
35298;SDS011;21415;48.054;16.646;2022-12-18T15:29:24;23.67;;;12.38;;
35298;SDS011;21415;48.054;16.646;2022-12-18T15:32:24;20.70;;;11.38;;
35298;SDS011;21415;48.054;16.646;2022-12-18T15:34:44;19.75;;;10.52;;
35298;SDS011;21415;48.054;16.646;2022-12-18T15:37:10;20.20;;;10.90;;
35298;SDS011;21415;48.054;16.646;2022-12-18T15:39:36;22.48;;;11.15;;
35298;SDS011;21415;48.054;16.646;2022-12-18T15:42:02;21.48;;;11.95;;
35298;SDS011;21415;48.054;16.646;2022-12-18T15:44:46;20.20;;;10.82;;
35298;SDS011;21415;48.054;16.646;2022-12-18T15:47:12;18.80;;;10.63;;
35298;SDS011;21415;48.054;16.646;2022-12-18T15:49:38;16.65;;;10.23;;
35298;SDS011;21415;48.054;16.646;2022-12-18T15:52:04;18.17;;;11.00;;
35298;SDS011;21415;48.054;16.646;2022-12-18T15:54:30;15.25;;;9.48;;
35298;SDS011;21415;48.054;16.646;2022-12-18T15:57:15;18.23;;;12.30;;
35298;SDS011;21415;48.054;16.646;2022-12-18T15:59:50;20.63;;;12.20;;
35298;SDS011;21415;48.054;16.646;2022-12-18T16:02:21;29.40;;;15.38;;
35298;SDS011;21415;48.054;16.646;2022-12-18T16:04:48;25.75;;;13.82;;
35298;SDS011;21415;48.054;16.646;2022-12-18T16:07:15;17.33;;;11.18;;
35298;SDS011;21415;48.054;16.646;2022-12-18T16:09:41;17.88;;;11.07;;
35298;SDS011;21415;48.054;16.646;2022-12-18T16:12:11;23.92;;;12.88;;
35298;SDS011;21415;48.054;16.646;2022-12-18T16:14:44;18.63;;;11.98;;
35298;SDS011;21415;48.054;16.646;2022-12-18T16:17:10;23.23;;;11.68;;
35298;SDS011;21415;48.054;16.646;2022-12-18T16:19:37;18.75;;;10.98;;
35298;SDS011;21415;48.054;16.646;2022-12-18T16:22:03;17.67;;;10.95;;
35298;SDS011;21415;48.054;16.646;2022-12-18T16:24:30;16.02;;;10.13;;
35298;SDS011;21415;48.054;16.646;2022-12-18T16:26:58;15.98;;;9.38;;
35298;SDS011;21415;48.054;16.646;2022-12-18T16:29:26;15.70;;;8.88;;
35298;SDS011;21415;48.054;16.646;2022-12-18T16:31:57;14.77;;;8.77;;
35298;SDS011;21415;48.054;16.646;2022-12-18T16:34:28;14.95;;;9.15;;
35298;SDS011;21415;48.054;16.646;2022-12-18T16:36:56;14.15;;;8.55;;
35298;SDS011;21415;48.054;16.646;2022-12-18T16:39:24;15.60;;;9.75;;